Pisgah, Arkansas
Current Conditions -  °F | °C
As of 11:56 AM on Saturday 25 Oct 2014 (Local Time) from KADF Reporting Station
Clear Clear  
Wind Chill: 78°   Ceiling: Unl
Heat Index: 80°   Visibility: 10mi
Dew Point: 65°   Wind: 9mph
Humidity: 64%   Direction: 240°WSW
Pressure: 30.13"   Gusts: NA
Location:  34.0586°N, 93.5318°W
Report Text: KADF 251656Z AUTO 24008KT 10SM CLR 26/18 A3013 RMK AO2 T02550183 SLP217
Loading
Personal Weather Stations






























Interactive Weather Map
Tropical Storm Tracking
New forecast layout! Learn more

10-Day Weather Forecast

Advertisements
Track Severe Weather on mobile